Time;durP1;ratioP1;P1;durP2;ratioP2;P2;SDS_P1;SDS_P2;PMS_P1;PMS_P2;Temp;Humidity;BMP_temperature;BMP_pressure;BME280_temperature;BME280_humidity;BME280_pressure;Samples;Min_cycle;Max_cycle;Signal;HPM_P1;HPM_P2
2022/07/17 00:02:16;;;;;;;1.43;1.10;;;14.50;99.90;;;;;;5073909;28;20170;-73
2022/07/17 00:04:41;;;;;;;1.30;1.17;;;14.50;99.90;;;;;;5073405;28;20253;-73
2022/07/17 00:07:07;;;;;;;1.20;0.97;;;14.50;99.90;;;;;;5073789;28;20174;-73
2022/07/17 00:09:32;;;;;;;1.87;1.30;;;14.50;99.90;;;;;;5073464;28;20563;-73
2022/07/17 00:11:58;;;;;;;9.23;1.20;;;14.40;99.90;;;;;;5073535;28;20220;-73
2022/07/17 00:14:24;;;;;;;3.10;1.30;;;14.40;99.90;;;;;;5072021;28;20589;-72
2022/07/17 00:16:49;;;;;;;2.57;1.50;;;14.40;99.90;;;;;;5073279;28;20197;-72
2022/07/17 00:19:15;;;;;;;3.37;1.43;;;14.40;99.90;;;;;;5072734;28;20186;-72
2022/07/17 00:21:42;;;;;;;1.43;1.13;;;14.40;99.90;;;;;;5073391;28;20177;-72
2022/07/17 00:24:08;;;;;;;2.50;1.43;;;14.40;99.90;;;;;;5073126;28;20396;-73
2022/07/17 00:26:34;;;;;;;1.60;1.00;;;14.30;99.90;;;;;;5073151;28;20396;-72
2022/07/17 00:28:59;;;;;;;5.70;1.23;;;14.40;99.90;;;;;;5072913;28;20482;-73
2022/07/17 00:31:25;;;;;;;3.53;1.40;;;14.30;99.90;;;;;;5073200;28;20181;-72
2022/07/17 00:33:50;;;;;;;1.27;1.03;;;14.30;99.90;;;;;;5073245;28;20162;-72
2022/07/17 00:36:16;;;;;;;2.60;1.20;;;14.30;99.90;;;;;;5071240;28;20178;-72
2022/07/17 00:38:41;;;;;;;3.20;1.10;;;14.30;99.90;;;;;;5072010;28;20216;-73
2022/07/17 00:41:07;;;;;;;1.33;0.97;;;14.30;99.90;;;;;;5072894;28;20162;-73
2022/07/17 00:43:33;;;;;;;2.80;1.03;;;14.30;99.90;;;;;;5073041;28;20201;-72
2022/07/17 00:46:00;;;;;;;2.97;1.60;;;14.30;99.90;;;;;;5072717;28;20553;-73
2022/07/17 00:48:26;;;;;;;1.50;0.93;;;14.30;99.90;;;;;;5072850;28;20590;-72
2022/07/17 00:50:52;;;;;;;2.40;1.40;;;14.20;99.90;;;;;;5072746;28;20408;-72
2022/07/17 00:53:18;;;;;;;2.77;1.30;;;14.20;99.90;;;;;;5072730;28;20797;-73
2022/07/17 00:55:47;;;;;;;1.80;1.50;;;14.20;99.90;;;;;;5071332;28;20412;-73
2022/07/17 00:58:22;;;;;;;1.23;1.00;;;14.20;99.90;;;;;;5072649;28;20452;-72
2022/07/17 01:00:49;;;;;;;9.03;1.90;;;14.10;99.90;;;;;;5071439;28;20420;-72
2022/07/17 01:03:16;;;;;;;2.10;0.90;;;14.10;99.90;;;;;;5072681;28;20920;-72
2022/07/17 01:05:41;;;;;;;2.03;1.10;;;14.10;99.90;;;;;;5072164;28;20864;-72
2022/07/17 01:08:07;;;;;;;1.13;0.90;;;14.10;99.90;;;;;;5071466;28;20412;-73
2022/07/17 01:10:33;;;;;;;1.30;1.10;;;14.10;99.90;;;;;;5071298;28;20507;-72
2022/07/17 01:12:59;;;;;;;4.83;1.47;;;14.00;99.90;;;;;;5072420;28;20631;-72
2022/07/17 01:15:24;;;;;;;1.60;1.00;;;14.00;99.90;;;;;;5072027;28;20682;-72
2022/07/17 01:17:50;;;;;;;3.53;1.00;;;14.00;99.90;;;;;;5071119;28;20209;-72
2022/07/17 01:20:16;;;;;;;1.67;1.33;;;14.00;99.90;;;;;;5072414;28;20178;-72
2022/07/17 01:22:45;;;;;;;2.90;1.30;;;14.00;99.90;;;;;;5072232;28;20467;-72
2022/07/17 01:25:12;;;;;;;2.70;1.23;;;13.90;99.90;;;;;;5072108;28;20407;-72
2022/07/17 01:27:38;;;;;;;2.50;2.23;;;13.90;99.90;;;;;;5072093;28;20788;-73
2022/07/17 01:30:04;;;;;;;1.50;1.37;;;13.90;99.90;;;;;;5070929;28;20444;-73
2022/07/17 01:32:34;;;;;;;1.57;1.47;;;13.90;99.90;;;;;;5072153;28;20183;-72
2022/07/17 01:35:01;;;;;;;1.20;1.10;;;13.80;99.90;;;;;;5072005;28;20408;-72
2022/07/17 01:37:27;;;;;;;3.37;1.73;;;13.80;99.90;;;;;;5072176;28;20447;-72
2022/07/17 01:39:53;;;;;;;1.40;1.20;;;13.80;99.90;;;;;;5072241;28;20503;-72
2022/07/17 01:42:19;;;;;;;2.50;1.33;;;13.80;99.90;;;;;;5072100;28;20492;-72
2022/07/17 01:44:45;;;;;;;2.80;1.27;;;13.80;99.90;;;;;;5070521;28;20594;-73
2022/07/17 01:47:12;;;;;;;1.63;1.50;;;13.80;99.90;;;;;;5072063;28;20447;-72
2022/07/17 01:49:38;;;;;;;1.90;1.43;;;13.70;99.90;;;;;;5072097;28;20194;-72
2022/07/17 01:52:03;;;;;;;3.40;1.80;;;13.70;99.90;;;;;;5072040;28;20573;-73
2022/07/17 01:54:30;;;;;;;4.60;1.23;;;13.70;99.90;;;;;;5071914;28;20241;-72
2022/07/17 01:56:55;;;;;;;3.67;1.43;;;13.60;99.90;;;;;;5072132;28;20198;-72
2022/07/17 01:59:21;;;;;;;1.63;1.30;;;13.60;99.90;;;;;;5072052;28;20436;-73
2022/07/17 02:01:47;;;;;;;3.33;1.13;;;13.60;99.90;;;;;;5072452;28;20231;-72
2022/07/17 02:04:12;;;;;;;2.50;1.10;;;13.60;99.90;;;;;;5071788;28;20491;-72
2022/07/17 02:06:38;;;;;;;1.83;1.37;;;13.60;99.90;;;;;;5072042;28;20596;-72
2022/07/17 02:09:03;;;;;;;2.13;1.30;;;13.50;99.90;;;;;;5071914;28;20186;-72
2022/07/17 02:11:29;;;;;;;2.53;1.63;;;13.50;99.90;;;;;;5072108;28;20170;-72
2022/07/17 02:13:54;;;;;;;2.07;1.40;;;13.50;99.90;;;;;;5073486;28;20533;-73
2022/07/17 02:16:20;;;;;;;3.37;1.20;;;13.40;99.90;;;;;;5073675;28;20170;-73
2022/07/17 02:18:46;;;;;;;2.00;1.07;;;13.40;99.90;;;;;;5073921;28;20166;-73
2022/07/17 02:21:11;;;;;;;4.93;1.87;;;13.40;99.90;;;;;;5073836;28;20192;-73
2022/07/17 02:23:37;;;;;;;1.37;1.13;;;13.30;99.90;;;;;;5074150;28;20167;-73
2022/07/17 02:26:03;;;;;;;3.10;1.50;;;13.30;99.90;;;;;;5073645;28;20404;-73
2022/07/17 02:28:28;;;;;;;1.20;1.03;;;13.30;99.90;;;;;;5073912;28;20171;-73
2022/07/17 02:30:55;;;;;;;1.93;1.47;;;13.30;99.90;;;;;;5073874;28;20175;-73
2022/07/17 02:33:20;;;;;;;1.53;1.43;;;13.20;99.90;;;;;;5074017;28;20576;-73
2022/07/17 02:35:46;;;;;;;1.47;1.20;;;13.20;99.90;;;;;;5073642;28;20400;-73
2022/07/17 02:38:11;;;;;;;2.23;1.40;;;13.20;99.90;;;;;;5074013;28;20281;-73
2022/07/17 02:40:37;;;;;;;4.60;1.97;;;13.20;99.90;;;;;;5073616;28;20187;-73
2022/07/17 02:43:02;;;;;;;2.53;1.43;;;13.10;99.90;;;;;;5077372;28;20163;-73
2022/07/17 02:45:28;;;;;;;3.17;1.37;;;13.10;99.90;;;;;;5076631;28;20198;-73
2022/07/17 02:47:54;;;;;;;4.63;1.80;;;13.10;99.90;;;;;;5077389;28;20166;-73
2022/07/17 02:50:21;;;;;;;1.17;1.07;;;13.10;99.90;;;;;;5077138;28;20186;-73
2022/07/17 02:52:48;;;;;;;1.30;1.10;;;13.00;99.90;;;;;;5077096;28;20471;-73
2022/07/17 02:55:14;;;;;;;2.03;1.20;;;13.00;99.90;;;;;;5076513;28;20413;-73
2022/07/17 02:57:41;;;;;;;1.90;1.20;;;13.00;99.90;;;;;;5075823;28;21031;-73
2022/07/17 03:00:10;;;;;;;1.80;1.40;;;13.00;99.90;;;;;;5076601;28;20458;-73
2022/07/17 03:02:36;;;;;;;2.63;1.30;;;13.00;99.90;;;;;;5076552;28;20158;-73
2022/07/17 03:05:03;;;;;;;1.40;1.30;;;12.90;99.90;;;;;;5075244;28;20417;-73
2022/07/17 03:07:29;;;;;;;1.73;1.43;;;12.90;99.90;;;;;;5075110;28;20412;-73
2022/07/17 03:09:55;;;;;;;1.87;1.10;;;12.90;99.90;;;;;;5076827;28;20479;-73
2022/07/17 03:12:20;;;;;;;2.03;1.73;;;12.90;99.90;;;;;;5076752;28;20171;-74
2022/07/17 03:14:46;;;;;;;2.80;1.50;;;12.80;99.90;;;;;;5075810;28;20170;-73
2022/07/17 03:17:11;;;;;;;1.77;1.60;;;12.80;99.90;;;;;;5076298;28;20273;-73
2022/07/17 03:19:37;;;;;;;4.50;1.40;;;12.80;99.90;;;;;;5076332;28;20182;-73
2022/07/17 03:22:02;;;;;;;1.50;1.17;;;12.80;99.90;;;;;;5076282;28;20163;-73
2022/07/17 03:24:28;;;;;;;1.60;1.40;;;12.80;99.90;;;;;;5076572;28;20167;-73
2022/07/17 03:26:54;;;;;;;2.10;1.43;;;12.70;99.90;;;;;;5076347;28;20171;-73
2022/07/17 03:29:19;;;;;;;1.80;1.33;;;12.70;99.90;;;;;;5075825;28;20277;-73
2022/07/17 03:31:46;;;;;;;2.27;1.30;;;12.70;99.90;;;;;;5076137;28;20641;-73
2022/07/17 03:34:12;;;;;;;3.00;1.60;;;12.70;99.90;;;;;;5076343;28;20193;-72
2022/07/17 03:36:38;;;;;;;2.07;1.33;;;12.70;99.90;;;;;;5076271;28;20462;-73
2022/07/17 03:39:03;;;;;;;6.93;1.50;;;12.60;99.90;;;;;;5076043;28;20424;-73
2022/07/17 03:41:29;;;;;;;2.53;1.90;;;12.60;99.90;;;;;;5076452;28;20538;-73
2022/07/17 03:43:54;;;;;;;4.47;1.30;;;12.60;99.90;;;;;;5074651;28;20173;-73
2022/07/17 03:46:21;;;;;;;1.43;1.07;;;12.60;99.90;;;;;;5073548;28;20197;-72
2022/07/17 03:48:47;;;;;;;2.77;1.43;;;12.60;99.90;;;;;;5073516;28;20162;-73
2022/07/17 03:51:12;;;;;;;1.90;1.37;;;12.60;99.90;;;;;;5073586;28;20458;-72
2022/07/17 03:53:38;;;;;;;1.47;0.93;;;12.60;99.90;;;;;;5072445;28;20554;-72
2022/07/17 03:56:04;;;;;;;1.60;1.27;;;12.60;99.90;;;;;;5073255;28;20180;-72
2022/07/17 03:58:30;;;;;;;1.90;1.40;;;12.60;99.90;;;;;;5073485;28;20667;-72
2022/07/17 04:00:56;;;;;;;1.80;1.57;;;12.60;99.90;;;;;;5073519;28;20835;-73
2022/07/17 04:03:22;;;;;;;1.97;1.77;;;12.60;99.90;;;;;;5073475;28;20451;-73
2022/07/17 04:05:47;;;;;;;4.50;1.87;;;12.60;99.90;;;;;;5072996;28;20166;-73
2022/07/17 04:08:13;;;;;;;2.00;1.30;;;12.60;99.90;;;;;;5073282;28;20595;-73
2022/07/17 04:10:39;;;;;;;2.50;1.60;;;12.70;99.90;;;;;;5073119;28;20672;-73
2022/07/17 04:13:04;;;;;;;1.27;1.13;;;12.70;99.90;;;;;;5073132;28;20188;-73
2022/07/17 04:18:17;;;;;;;2.00;1.43;;;12.70;99.90;;;;;;5073100;28;20197;-73
2022/07/17 04:20:43;;;;;;;1.13;0.90;;;12.70;99.90;;;;;;5073092;28;20818;-73
2022/07/17 04:23:09;;;;;;;3.00;1.80;;;12.70;99.90;;;;;;5072941;28;20521;-73
2022/07/17 04:25:35;;;;;;;2.17;1.50;;;12.70;99.90;;;;;;5072638;28;20211;-72
2022/07/17 04:28:00;;;;;;;1.30;1.13;;;12.70;99.90;;;;;;5072813;28;20174;-73
2022/07/17 04:30:26;;;;;;;1.53;1.10;;;12.80;99.90;;;;;;5072861;28;20821;-73
2022/07/17 04:32:52;;;;;;;1.30;1.13;;;12.90;99.90;;;;;;5072791;28;20178;-73
2022/07/17 04:35:17;;;;;;;2.47;1.57;;;12.90;99.90;;;;;;5072581;28;20631;-73
2022/07/17 04:37:43;;;;;;;1.37;0.97;;;12.90;99.90;;;;;;5072641;28;20204;-73
2022/07/17 04:40:09;;;;;;;1.23;0.90;;;12.90;99.90;;;;;;5071352;28;20277;-73
2022/07/17 04:42:34;;;;;;;1.97;1.80;;;13.00;99.90;;;;;;5071386;28;20647;-73
2022/07/17 04:45:00;;;;;;;2.40;1.17;;;13.00;99.90;;;;;;5072341;28;20408;-72
2022/07/17 04:47:26;;;;;;;1.53;1.20;;;13.00;99.90;;;;;;5072513;28;20174;-72
2022/07/17 04:49:51;;;;;;;2.13;1.60;;;13.00;99.90;;;;;;5072468;28;20217;-73
2022/07/17 04:52:17;;;;;;;2.57;1.17;;;13.00;99.90;;;;;;5072365;28;20190;-72
2022/07/17 04:54:42;;;;;;;1.40;1.17;;;13.00;99.90;;;;;;5072062;28;20181;-72
2022/07/17 04:57:08;;;;;;;2.93;1.57;;;13.10;99.90;;;;;;5072357;28;20198;-73
2022/07/17 04:59:33;;;;;;;3.23;1.20;;;13.10;99.90;;;;;;5072196;28;20273;-73
2022/07/17 05:01:59;;;;;;;1.50;1.10;;;13.20;99.90;;;;;;5072283;28;20588;-73
2022/07/17 05:04:24;;;;;;;5.70;1.30;;;13.20;99.90;;;;;;5071761;28;20171;-72
2022/07/17 05:06:50;;;;;;;2.00;1.40;;;13.30;99.90;;;;;;5072244;28;20249;-73
2022/07/17 05:09:15;;;;;;;1.67;1.57;;;13.40;99.90;;;;;;5072123;28;20227;-73
2022/07/17 05:11:41;;;;;;;1.33;1.13;;;13.40;99.90;;;;;;5072196;28;20245;-73
2022/07/17 05:14:07;;;;;;;1.37;1.10;;;13.50;99.90;;;;;;5072025;28;20833;-72
2022/07/17 05:16:33;;;;;;;1.73;1.27;;;13.60;99.90;;;;;;5070624;28;20605;-72
2022/07/17 05:18:58;;;;;;;1.43;1.23;;;13.70;99.90;;;;;;5071999;28;20424;-73
2022/07/17 05:21:24;;;;;;;1.50;1.27;;;13.80;99.90;;;;;;5072408;28;20197;-73
2022/07/17 05:23:50;;;;;;;3.23;2.13;;;13.90;99.90;;;;;;5071179;28;20166;-73
2022/07/17 05:26:15;;;;;;;1.67;1.43;;;14.00;99.90;;;;;;5072054;28;20208;-73
2022/07/17 05:28:41;;;;;;;2.10;1.30;;;14.10;99.90;;;;;;5072039;28;20166;-73
2022/07/17 05:31:06;;;;;;;1.57;1.37;;;14.20;99.90;;;;;;5072196;28;20171;-73
2022/07/17 05:33:32;;;;;;;2.13;1.37;;;14.30;99.90;;;;;;5072406;28;20173;-72
2022/07/17 05:35:58;;;;;;;2.07;1.53;;;14.40;99.90;;;;;;5072087;28;20170;-73
2022/07/17 05:38:23;;;;;;;2.70;2.10;;;14.60;99.90;;;;;;5072168;28;20769;-73
2022/07/17 05:40:49;;;;;;;3.63;2.03;;;14.80;99.90;;;;;;5072408;28;20194;-73
2022/07/17 05:43:14;;;;;;;2.13;1.60;;;15.00;99.90;;;;;;5072356;28;20177;-73
2022/07/17 05:45:40;;;;;;;1.70;1.33;;;15.20;99.90;;;;;;5073242;28;20170;-74
2022/07/17 05:48:06;;;;;;;2.20;1.10;;;15.40;99.90;;;;;;5072774;28;20181;-74
2022/07/17 05:50:33;;;;;;;1.73;1.20;;;15.70;99.90;;;;;;5072778;28;20201;-74
2022/07/17 05:52:58;;;;;;;2.40;2.07;;;16.00;99.90;;;;;;5074372;28;20427;-74
2022/07/17 05:55:24;;;;;;;2.70;1.27;;;16.30;99.90;;;;;;5073948;28;20423;-74
2022/07/17 05:57:49;;;;;;;1.57;1.30;;;16.60;99.90;;;;;;5074097;28;20201;-74
2022/07/17 06:00:15;;;;;;;1.63;1.40;;;16.90;99.90;;;;;;5073950;28;20593;-74
2022/07/17 06:02:41;;;;;;;2.30;1.37;;;17.20;99.90;;;;;;5074187;28;20220;-74
2022/07/17 06:05:07;;;;;;;4.37;1.73;;;17.70;99.90;;;;;;5073759;28;20177;-74
2022/07/17 06:07:32;;;;;;;2.57;1.70;;;18.00;99.90;;;;;;5072495;28;20170;-73
2022/07/17 06:09:58;;;;;;;6.00;1.77;;;18.40;99.90;;;;;;5071566;28;20435;-74
2022/07/17 06:12:24;;;;;;;4.30;1.60;;;18.80;99.90;;;;;;5071774;28;20193;-73
2022/07/17 06:14:49;;;;;;;2.80;1.30;;;19.20;99.90;;;;;;5071220;28;20448;-74
2022/07/17 06:17:15;;;;;;;1.77;1.67;;;19.50;99.90;;;;;;5074692;28;20202;-74
2022/07/17 06:19:41;;;;;;;2.17;1.50;;;20.00;99.90;;;;;;5075407;28;20201;-73
2022/07/17 06:22:06;;;;;;;2.40;1.43;;;20.50;99.90;;;;;;5075429;28;20772;-74
2022/07/17 06:24:32;;;;;;;3.13;2.70;;;21.10;99.90;;;;;;5075076;28;20503;-74
2022/07/17 06:26:57;;;;;;;1.30;1.13;;;21.50;99.90;;;;;;5075327;28;20628;-74
2022/07/17 06:29:23;;;;;;;2.90;1.53;;;22.20;99.90;;;;;;5075215;28;20580;-74
2022/07/17 06:31:48;;;;;;;2.60;1.87;;;22.60;99.90;;;;;;5075603;28;20180;-75
2022/07/17 06:34:14;;;;;;;1.60;1.50;;;23.10;99.90;;;;;;5077272;28;20273;-75
2022/07/17 06:36:40;;;;;;;3.20;1.50;;;23.80;99.90;;;;;;5077354;28;20194;-75
2022/07/17 06:39:05;;;;;;;2.53;1.57;;;24.30;97.70;;;;;;5076884;28;20217;-75
2022/07/17 06:41:31;;;;;;;1.67;1.30;;;24.70;96.10;;;;;;5075802;28;20173;-75
2022/07/17 06:43:56;;;;;;;2.13;1.93;;;25.20;93.70;;;;;;5075204;28;20631;-74
2022/07/17 06:46:22;;;;;;;2.63;2.37;;;25.60;90.30;;;;;;5074884;28;20635;-75
2022/07/17 06:48:51;;;;;;;1.57;1.47;;;25.90;85.80;;;;;;5075038;28;20864;-75
2022/07/17 06:51:16;;;;;;;2.50;2.30;;;26.40;84.90;;;;;;5075110;28;20524;-75
2022/07/17 06:53:42;;;;;;;2.80;1.70;;;26.80;78.10;;;;;;5073916;28;20437;-74
2022/07/17 06:56:08;;;;;;;2.80;2.03;;;27.10;74.80;;;;;;5074648;28;20170;-75
2022/07/17 06:58:34;;;;;;;2.60;2.40;;;27.40;75.70;;;;;;5074804;28;20205;-75
2022/07/17 07:01:00;;;;;;;2.90;2.30;;;27.60;70.00;;;;;;5074816;28;20170;-74
2022/07/17 07:03:25;;;;;;;4.23;2.97;;;28.00;68.50;;;;;;5073331;28;20407;-74
2022/07/17 07:05:51;;;;;;;2.97;1.93;;;28.50;63.10;;;;;;5074253;28;20171;-74
2022/07/17 07:08:17;;;;;;;5.57;2.40;;;28.80;64.60;;;;;;5074534;28;20159;-74
2022/07/17 07:10:42;;;;;;;2.40;2.20;;;29.00;60.20;;;;;;5074875;28;20277;-75
2022/07/17 07:13:08;;;;;;;3.30;2.70;;;29.30;59.50;;;;;;5077636;28;20195;-75
2022/07/17 07:15:34;;;;;;;3.10;2.37;;;29.60;57.50;;;;;;5075633;28;20170;-75
2022/07/17 07:18:00;;;;;;;2.60;2.40;;;29.80;55.30;;;;;;5076073;28;20463;-76
2022/07/17 07:20:25;;;;;;;2.97;1.67;;;30.20;53.70;;;;;;5074316;28;20182;-74
2022/07/17 07:22:51;;;;;;;2.27;1.90;;;30.30;53.80;;;;;;5074348;28;20669;-74
2022/07/17 07:25:17;;;;;;;2.47;1.70;;;30.40;51.70;;;;;;5073097;28;20194;-74
2022/07/17 07:27:42;;;;;;;1.60;1.50;;;30.30;51.60;;;;;;5074194;28;20201;-75
2022/07/17 07:30:12;;;;;;;1.57;1.47;;;30.80;51.10;;;;;;5074106;28;20752;-74
2022/07/17 07:32:39;;;;;;;2.53;2.33;;;31.00;50.50;;;;;;5074244;28;20162;-74
2022/07/17 07:35:06;;;;;;;2.00;1.77;;;31.50;49.90;;;;;;5076281;28;20397;-76
2022/07/17 07:37:32;;;;;;;2.23;1.60;;;32.20;49.40;;;;;;5077137;28;20522;-76
2022/07/17 07:39:57;;;;;;;2.37;2.17;;;32.70;50.00;;;;;;5075686;28;21010;-75
2022/07/17 07:42:23;;;;;;;2.50;2.00;;;33.50;46.60;;;;;;5073845;28;20162;-75
2022/07/17 07:44:48;;;;;;;5.50;1.70;;;33.90;43.90;;;;;;5074014;28;20252;-75
2022/07/17 07:47:14;;;;;;;2.90;2.10;;;34.40;45.20;;;;;;5074138;28;20166;-75
2022/07/17 07:49:39;;;;;;;1.80;1.70;;;35.00;44.30;;;;;;5074093;28;20186;-76
2022/07/17 07:52:05;;;;;;;2.60;2.33;;;35.70;43.10;;;;;;5072533;28;20323;-75
2022/07/17 07:54:31;;;;;;;2.00;1.60;;;36.30;40.30;;;;;;5073771;28;20173;-75
2022/07/17 07:56:57;;;;;;;2.23;2.03;;;36.40;39.60;;;;;;5072595;28;20275;-75
2022/07/17 07:59:22;;;;;;;2.63;2.43;;;36.70;39.40;;;;;;5073881;28;20254;-75
2022/07/17 08:01:48;;;;;;;2.70;2.47;;;37.10;39.20;;;;;;5073998;28;20190;-75
2022/07/17 08:04:14;;;;;;;3.07;2.53;;;37.70;39.10;;;;;;5073526;28;20259;-76
2022/07/17 08:06:40;;;;;;;1.93;1.83;;;38.50;37.70;;;;;;5073697;28;20208;-74
2022/07/17 08:09:05;;;;;;;3.83;3.00;;;38.90;36.60;;;;;;5073424;28;20416;-75
2022/07/17 08:11:31;;;;;;;3.60;2.30;;;39.60;35.70;;;;;;5073344;28;20182;-75
2022/07/17 08:13:56;;;;;;;3.07;2.77;;;40.20;33.40;;;;;;5073291;28;20194;-76
2022/07/17 08:16:22;;;;;;;2.63;2.43;;;40.20;34.10;;;;;;5072940;28;20174;-76
2022/07/17 08:18:47;;;;;;;1.83;1.70;;;40.80;33.10;;;;;;5073091;28;20232;-74
2022/07/17 08:21:13;;;;;;;2.67;2.13;;;41.10;33.30;;;;;;5071922;28;20678;-74
2022/07/17 08:23:38;;;;;;;2.67;2.47;;;41.50;31.00;;;;;;5073266;28;20235;-76
2022/07/17 08:26:04;;;;;;;2.30;2.10;;;42.00;29.90;;;;;;5071590;28;20487;-75
2022/07/17 08:28:30;;;;;;;2.90;2.03;;;41.60;29.40;;;;;;5073041;28;20592;-74
2022/07/17 08:30:56;;;;;;;3.30;2.80;;;41.20;29.70;;;;;;5073026;28;20436;-74
2022/07/17 08:33:21;;;;;;;3.60;2.10;;;41.10;29.60;;;;;;5072883;28;20178;-73
2022/07/17 08:35:47;;;;;;;2.03;1.80;;;41.60;29.20;;;;;;5072630;28;20198;-75
2022/07/17 08:38:12;;;;;;;2.30;2.10;;;41.40;29.00;;;;;;5072432;28;20205;-74
2022/07/17 08:40:38;;;;;;;1.93;1.83;;;41.90;29.60;;;;;;5072772;28;20659;-73
2022/07/17 08:43:06;;;;;;;3.23;2.07;;;42.50;29.70;;;;;;5072906;28;20170;-74
2022/07/17 08:45:32;;;;;;;4.73;2.13;;;43.20;29.20;;;;;;5072675;28;20880;-74
2022/07/17 08:47:58;;;;;;;3.70;1.80;;;43.70;28.90;;;;;;5072855;28;20382;-74
2022/07/17 08:50:29;;;;;;;2.97;2.77;;;44.20;27.30;;;;;;5072664;28;20193;-74
2022/07/17 08:52:54;;;;;;;2.50;1.60;;;44.50;27.80;;;;;;5072767;28;20427;-74
2022/07/17 08:55:20;;;;;;;4.30;2.40;;;44.70;27.70;;;;;;5072644;28;20744;-75
2022/07/17 08:57:46;;;;;;;2.90;1.70;;;45.00;26.80;;;;;;5072820;28;20248;-74
2022/07/17 09:00:15;;;;;;;2.43;2.13;;;45.40;26.60;;;;;;5071494;28;20774;-75
2022/07/17 09:03:02;;;;;;;1.63;1.53;;;45.80;26.70;;;;;;5072635;28;20905;-74
2022/07/17 09:05:31;;;;;;;3.27;2.20;;;46.10;26.00;;;;;;5072248;28;20734;-75
2022/07/17 09:07:57;;;;;;;2.63;2.23;;;46.60;25.00;;;;;;5072382;28;20867;-74
2022/07/17 09:10:40;;;;;;;2.40;2.20;;;46.70;24.00;;;;;;5072267;28;21003;-74
2022/07/17 09:13:17;;;;;;;2.40;1.77;;;45.90;25.00;;;;;;5071218;28;20386;-75
2022/07/17 09:15:43;;;;;;;1.90;1.80;;;45.90;25.70;;;;;;5071981;28;20740;-74
2022/07/17 09:18:09;;;;;;;1.87;1.77;;;46.00;25.80;;;;;;5072209;28;20790;-74
2022/07/17 09:20:34;;;;;;;2.30;2.10;;;46.60;25.60;;;;;;5072125;28;20459;-75
2022/07/17 09:23:04;;;;;;;2.47;2.27;;;47.10;25.00;;;;;;5072138;28;20831;-75
2022/07/17 09:25:44;;;;;;;2.07;1.97;;;47.40;24.40;;;;;;5071880;28;20201;-75
2022/07/17 09:28:13;;;;;;;3.67;2.00;;;47.40;23.50;;;;;;5072047;28;20949;-74
2022/07/17 09:30:43;;;;;;;2.37;2.17;;;47.10;24.60;;;;;;5072040;28;20986;-74
2022/07/17 09:33:19;;;;;;;1.90;1.80;;;47.40;24.70;;;;;;5072110;28;20474;-75
2022/07/17 09:35:54;;;;;;;2.00;1.90;;;47.40;23.70;;;;;;5071752;28;20783;-75
2022/07/17 09:38:37;;;;;;;4.03;2.07;;;47.40;24.90;;;;;;5071879;28;20441;-74
2022/07/17 09:41:11;;;;;;;2.20;2.00;;;47.40;25.10;;;;;;5072028;28;20442;-75
2022/07/17 09:43:54;;;;;;;2.60;2.00;;;47.70;24.30;;;;;;5072184;28;20457;-75
2022/07/17 09:46:24;;;;;;;4.33;2.53;;;47.90;24.80;;;;;;5071749;28;20808;-74
2022/07/17 09:48:55;;;;;;;2.13;2.03;;;47.90;23.70;;;;;;5071949;28;20399;-75
2022/07/17 09:51:22;;;;;;;2.10;1.97;;;47.90;24.20;;;;;;5072702;28;20409;-75
2022/07/17 09:53:50;;;;;;;2.87;2.00;;;48.00;23.90;;;;;;5075938;28;20394;-75
2022/07/17 09:56:18;;;;;;;2.30;2.20;;;48.20;23.50;;;;;;5075616;28;20463;-74
2022/07/17 09:58:56;;;;;;;4.70;2.27;;;48.60;24.40;;;;;;5076136;28;20458;-74
2022/07/17 10:01:23;;;;;;;2.23;2.03;;;48.50;23.10;;;;;;5075782;28;20411;-74
2022/07/17 10:03:50;;;;;;;2.30;2.10;;;48.90;22.90;;;;;;5075843;28;20400;-75
2022/07/17 10:06:15;;;;;;;2.70;2.17;;;48.70;23.30;;;;;;5075665;28;20412;-75
2022/07/17 10:08:41;;;;;;;2.57;2.37;;;48.80;23.00;;;;;;5075671;28;20830;-74
2022/07/17 10:11:08;;;;;;;2.30;2.10;;;48.80;23.10;;;;;;5075796;28;20184;-75
2022/07/17 10:13:39;;;;;;;2.60;2.50;;;49.00;23.70;;;;;;5075693;28;20400;-75
2022/07/17 10:16:05;;;;;;;3.17;2.43;;;49.30;23.70;;;;;;5075670;28;20462;-75
2022/07/17 10:18:41;;;;;;;2.40;2.20;;;49.40;23.00;;;;;;5075263;28;20404;-73
2022/07/17 10:21:09;;;;;;;2.00;1.90;;;49.20;21.40;;;;;;5075348;28;20436;-74
2022/07/17 10:23:38;;;;;;;2.30;2.00;;;48.10;22.90;;;;;;5075556;28;20378;-74
2022/07/17 10:26:03;;;;;;;5.63;3.57;;;48.20;21.90;;;;;;5075254;28;20407;-74
2022/07/17 10:28:45;;;;;;;4.30;3.83;;;47.70;23.60;;;;;;5075527;28;20811;-74
2022/07/17 10:31:23;;;;;;;3.00;2.73;;;47.70;23.30;;;;;;5075315;28;20189;-74
2022/07/17 10:34:00;;;;;;;2.97;1.90;;;48.40;23.20;;;;;;5075360;28;20375;-75
2022/07/17 10:36:40;;;;;;;2.40;2.20;;;48.90;21.20;;;;;;5075038;28;20929;-74
2022/07/17 10:39:12;;;;;;;2.07;1.87;;;48.80;21.90;;;;;;5075173;28;20428;-74
2022/07/17 10:41:38;;;;;;;4.10;2.83;;;48.90;21.80;;;;;;5075233;28;20379;-74
2022/07/17 10:44:04;;;;;;;2.80;2.60;;;49.20;22.10;;;;;;5075309;28;20457;-74
2022/07/17 10:46:29;;;;;;;2.10;2.00;;;49.60;22.00;;;;;;5075512;28;20397;-74
2022/07/17 10:48:55;;;;;;;3.33;2.80;;;50.00;22.00;;;;;;5075155;28;20188;-74
2022/07/17 10:51:24;;;;;;;2.57;2.37;;;50.10;22.80;;;;;;5074943;28;20208;-75
2022/07/17 10:53:50;;;;;;;2.73;2.53;;;50.60;22.20;;;;;;5073485;28;20756;-75
2022/07/17 10:56:17;;;;;;;3.10;2.80;;;51.00;21.60;;;;;;5074751;28;20484;-75
2022/07/17 10:58:44;;;;;;;2.70;2.50;;;51.10;21.70;;;;;;5074697;28;20168;-74
2022/07/17 11:01:12;;;;;;;2.50;2.30;;;51.40;21.80;;;;;;5074315;28;20912;-74
2022/07/17 11:03:48;;;;;;;2.80;2.60;;;51.50;21.00;;;;;;5074611;28;20417;-74
2022/07/17 11:06:22;;;;;;;3.20;2.93;;;51.50;21.40;;;;;;5074211;28;20430;-75
2022/07/17 11:08:56;;;;;;;5.17;2.67;;;51.50;21.00;;;;;;5074382;28;20451;-74
2022/07/17 11:11:35;;;;;;;2.50;2.40;;;51.60;20.70;;;;;;5074527;28;20819;-74
2022/07/17 11:14:14;;;;;;;2.30;2.20;;;51.20;21.20;;;;;;5074378;28;20487;-74
2022/07/17 11:16:51;;;;;;;3.10;2.60;;;51.30;21.60;;;;;;5074501;28;20363;-75
2022/07/17 11:19:27;;;;;;;2.10;2.00;;;51.30;22.40;;;;;;5074354;28;20897;-75
2022/07/17 11:21:54;;;;;;;2.80;2.60;;;51.50;21.70;;;;;;5074301;28;20458;-75
2022/07/17 11:24:20;;;;;;;2.50;2.40;;;51.70;21.50;;;;;;5074357;28;20399;-75
2022/07/17 11:26:50;;;;;;;2.70;2.60;;;51.80;21.60;;;;;;5074293;28;21000;-74
2022/07/17 11:29:16;;;;;;;3.40;3.10;;;51.60;21.10;;;;;;5074068;28;20929;-75
2022/07/17 11:31:42;;;;;;;3.50;2.80;;;51.60;21.40;;;;;;5074090;28;20400;-75
2022/07/17 11:34:11;;;;;;;2.57;2.47;;;51.40;21.20;;;;;;5074129;28;20227;-74
2022/07/17 11:36:39;;;;;;;2.93;2.60;;;51.60;21.20;;;;;;5073802;28;20386;-75
2022/07/17 11:39:10;;;;;;;3.27;2.93;;;51.80;21.60;;;;;;5074010;28;20424;-74
2022/07/17 11:41:41;;;;;;;2.63;2.53;;;51.80;21.60;;;;;;5074344;28;20475;-75
2022/07/17 11:44:12;;;;;;;3.00;2.80;;;51.80;21.20;;;;;;5073932;28;20478;-75
2022/07/17 11:46:41;;;;;;;5.67;3.40;;;51.80;20.80;;;;;;5073784;28;20450;-75
2022/07/17 11:49:07;;;;;;;4.23;2.63;;;51.80;20.90;;;;;;5073920;28;20473;-74
2022/07/17 11:51:34;;;;;;;2.73;2.40;;;51.30;20.30;;;;;;5073690;28;20401;-75
2022/07/17 11:54:04;;;;;;;3.00;2.33;;;51.10;21.40;;;;;;5073712;28;20388;-75
2022/07/17 11:56:29;;;;;;;2.30;2.20;;;51.20;21.70;;;;;;5073472;28;20757;-74
2022/07/17 11:58:55;;;;;;;2.90;2.70;;;51.00;22.00;;;;;;5073590;28;20417;-75
2022/07/17 12:01:21;;;;;;;2.53;2.33;;;50.90;21.90;;;;;;5072356;28;20257;-75
2022/07/17 12:03:57;;;;;;;2.97;2.77;;;51.10;21.60;;;;;;5073502;28;20520;-75
2022/07/17 12:06:26;;;;;;;4.03;2.80;;;50.50;21.80;;;;;;5073286;28;20162;-75
2022/07/17 12:08:53;;;;;;;3.43;2.70;;;50.60;22.00;;;;;;5073351;28;20428;-74
2022/07/17 12:11:19;;;;;;;2.87;2.63;;;50.50;22.10;;;;;;5071988;28;20393;-74
2022/07/17 12:13:48;;;;;;;3.77;2.77;;;50.20;21.80;;;;;;5072475;28;20514;-75
2022/07/17 12:16:26;;;;;;;2.33;2.13;;;50.00;21.80;;;;;;5073211;28;20190;-74
2022/07/17 12:19:09;;;;;;;2.30;2.20;;;49.80;22.10;;;;;;5073102;28;20399;-74
2022/07/17 12:22:01;;;;;;;3.27;3.03;;;49.70;22.20;;;;;;5071830;28;21063;-75
2022/07/17 12:24:38;;;;;;;3.97;3.67;;;49.90;21.70;;;;;;5072922;28;20397;-74
2022/07/17 12:27:06;;;;;;;2.80;2.60;;;50.00;21.30;;;;;;5073132;28;20418;-75
2022/07/17 12:29:31;;;;;;;4.03;2.70;;;50.30;20.70;;;;;;5072870;28;20478;-75
2022/07/17 12:32:05;;;;;;;2.90;2.70;;;49.90;20.60;;;;;;5072922;28;20945;-75
2022/07/17 12:34:31;;;;;;;2.43;2.33;;;49.70;21.80;;;;;;5072722;28;20165;-75
2022/07/17 12:36:56;;;;;;;4.87;2.60;;;49.60;21.80;;;;;;5072926;28;20541;-75
2022/07/17 12:39:22;;;;;;;3.23;2.93;;;49.20;21.70;;;;;;5072768;28;20685;-74
2022/07/17 12:41:48;;;;;;;2.53;2.33;;;49.30;21.80;;;;;;5072780;28;20248;-74
2022/07/17 12:44:13;;;;;;;3.10;2.73;;;48.80;22.00;;;;;;5072562;28;20177;-74
2022/07/17 12:46:39;;;;;;;2.30;2.10;;;48.30;21.80;;;;;;5071142;28;20205;-74
2022/07/17 12:49:04;;;;;;;3.33;2.30;;;48.10;22.00;;;;;;5071373;28;20182;-73
2022/07/17 12:51:30;;;;;;;3.00;2.23;;;47.80;22.10;;;;;;5072559;28;20216;-74